createdAt,value
2017-08-05T00:02:17.112Z,14.80
2017-08-05T00:04:45.436Z,14.70
2017-08-05T00:07:13.940Z,14.60
2017-08-05T00:09:44.129Z,14.50
2017-08-05T00:12:12.428Z,14.40
2017-08-05T00:14:40.772Z,14.30
2017-08-05T00:17:09.128Z,14.20
2017-08-05T00:19:37.417Z,14.20
2017-08-05T00:22:05.710Z,14.10
2017-08-05T00:24:34.065Z,14.00
2017-08-05T00:27:02.470Z,13.90
2017-08-05T00:29:30.817Z,13.90
2017-08-05T00:31:59.229Z,13.80
2017-08-05T00:34:27.586Z,13.80
2017-08-05T00:36:55.917Z,13.70
2017-08-05T00:39:24.208Z,13.60
2017-08-05T00:41:52.618Z,13.50
2017-08-05T00:44:20.907Z,13.60
2017-08-05T00:46:49.199Z,13.60
2017-08-05T00:49:17.623Z,13.60
2017-08-05T00:51:45.924Z,13.60
2017-08-05T00:54:14.260Z,13.70
2017-08-05T00:56:43.189Z,13.50
2017-08-05T00:59:11.534Z,13.60
2017-08-05T01:01:39.868Z,13.70
2017-08-05T01:04:08.199Z,13.60
2017-08-05T01:06:36.493Z,13.40
2017-08-05T01:09:04.779Z,13.30
2017-08-05T01:11:34.263Z,13.40
2017-08-05T01:14:02.572Z,13.20
2017-08-05T01:16:30.913Z,13.20
2017-08-05T01:18:59.232Z,13.20
2017-08-05T01:21:27.725Z,13.20
2017-08-05T01:23:56.040Z,13.10
2017-08-05T01:26:24.348Z,13.10
2017-08-05T01:28:52.687Z,13.00
2017-08-05T01:31:22.993Z,13.00
2017-08-05T01:33:51.323Z,13.00
2017-08-05T01:36:19.667Z,12.90
2017-08-05T01:38:48.011Z,12.80
2017-08-05T01:41:16.364Z,12.60
2017-08-05T01:43:44.703Z,12.60
2017-08-05T01:46:13.044Z,12.70
2017-08-05T01:48:41.386Z,12.60
2017-08-05T01:51:09.676Z,12.60
2017-08-05T01:53:38.012Z,12.60
2017-08-05T01:56:10.400Z,12.60
2017-08-05T01:58:38.752Z,12.50
2017-08-05T02:01:09.493Z,12.50
2017-08-05T02:03:37.809Z,12.50
2017-08-05T02:06:06.187Z,12.40
2017-08-05T02:08:34.516Z,12.40
2017-08-05T02:11:02.879Z,12.30
2017-08-05T02:13:31.187Z,12.30
2017-08-05T02:15:59.557Z,12.40
2017-08-05T02:18:27.968Z,12.40
2017-08-05T02:20:56.353Z,12.40
2017-08-05T02:23:24.656Z,12.50
2017-08-05T02:25:53.099Z,12.40
2017-08-05T02:28:21.392Z,12.50
2017-08-05T02:30:49.688Z,12.50
2017-08-05T02:33:18.102Z,12.50
2017-08-05T02:35:46.430Z,12.60
2017-08-05T02:38:14.768Z,12.70
2017-08-05T02:40:43.060Z,12.70
2017-08-05T02:43:11.405Z,12.70
2017-08-05T02:45:39.692Z,12.80
2017-08-05T02:48:07.979Z,12.80
2017-08-05T02:50:36.472Z,12.90
2017-08-05T02:53:04.768Z,13.00
2017-08-05T02:55:33.082Z,13.10
2017-08-05T02:58:01.435Z,13.20
2017-08-05T03:00:29.806Z,13.30
2017-08-05T03:02:58.162Z,13.30
2017-08-05T03:05:26.491Z,13.30
2017-08-05T03:07:54.832Z,13.30
2017-08-05T03:10:23.131Z,13.40
2017-08-05T03:12:51.485Z,13.40
2017-08-05T03:15:19.840Z,13.40
2017-08-05T03:17:48.146Z,13.40
2017-08-05T03:20:16.495Z,13.40
2017-08-05T03:22:45.083Z,13.40
2017-08-05T03:25:13.412Z,13.40
2017-08-05T03:27:41.708Z,13.40
2017-08-05T03:30:10.037Z,13.40
2017-08-05T03:32:38.380Z,13.40
2017-08-05T03:35:06.873Z,13.40
2017-08-05T03:37:35.205Z,13.40
2017-08-05T03:40:03.517Z,13.40
2017-08-05T03:42:32.040Z,13.40
2017-08-05T03:45:00.428Z,13.40
2017-08-05T03:47:29.981Z,13.40
2017-08-05T03:49:58.472Z,13.30
2017-08-05T03:52:26.804Z,13.20
2017-08-05T03:54:55.170Z,13.10
2017-08-05T03:57:23.552Z,13.10
2017-08-05T03:59:52.041Z,13.10
2017-08-05T04:02:20.337Z,13.00
2017-08-05T04:04:48.654Z,12.90
2017-08-05T04:07:17.090Z,12.90
2017-08-05T04:09:45.427Z,12.90
2017-08-05T04:12:13.793Z,12.90
2017-08-05T04:14:42.140Z,12.90
2017-08-05T04:17:10.467Z,12.90
2017-08-05T04:19:38.802Z,12.80
2017-08-05T04:22:07.139Z,12.80
2017-08-05T04:24:36.188Z,12.90
2017-08-05T04:27:04.627Z,12.90
2017-08-05T04:29:33.016Z,13.10
2017-08-05T04:32:01.397Z,13.10
2017-08-05T04:34:29.780Z,13.00
2017-08-05T04:36:58.325Z,12.90
2017-08-05T04:39:26.728Z,12.90
2017-08-05T04:41:55.029Z,13.00
2017-08-05T04:44:23.380Z,13.10
2017-08-05T04:46:51.685Z,13.10
2017-08-05T04:49:20.796Z,13.10
2017-08-05T04:51:49.136Z,13.20
2017-08-05T04:54:17.489Z,13.40
2017-08-05T04:56:46.673Z,13.40
2017-08-05T04:59:14.978Z,13.50
2017-08-05T05:01:43.281Z,13.40
2017-08-05T05:04:11.721Z,13.50
2017-08-05T05:06:40.020Z,13.50
2017-08-05T05:09:09.562Z,13.50
2017-08-05T05:11:37.945Z,13.40
2017-08-05T05:14:06.701Z,13.50
2017-08-05T05:16:35.045Z,13.70
2017-08-05T05:19:03.737Z,13.80
2017-08-05T05:21:32.100Z,14.00
2017-08-05T05:24:00.428Z,14.20
2017-08-05T05:26:28.899Z,14.20
2017-08-05T05:28:57.252Z,14.20
2017-08-05T05:31:25.599Z,14.20
2017-08-05T05:33:53.944Z,14.10
2017-08-05T05:36:22.285Z,14.00
2017-08-05T05:38:50.581Z,13.90
2017-08-05T05:41:18.937Z,13.80
2017-08-05T05:43:47.309Z,13.70
2017-08-05T05:46:18.569Z,13.80
2017-08-05T05:48:48.512Z,13.80
2017-08-05T05:51:16.866Z,14.00
2017-08-05T05:53:45.210Z,14.00
2017-08-05T05:56:13.676Z,14.00
2017-08-05T05:58:44.165Z,14.00
2017-08-05T06:01:12.460Z,14.00
2017-08-05T06:03:40.818Z,13.90
2017-08-05T06:06:09.109Z,14.00
2017-08-05T06:08:37.405Z,14.10
2017-08-05T06:13:39.883Z,14.30
2017-08-05T06:16:08.320Z,14.30
2017-08-05T06:18:36.615Z,14.30
2017-08-05T06:21:04.960Z,14.40
2017-08-05T06:23:33.297Z,14.50
2017-08-05T06:26:02.528Z,14.60
2017-08-05T06:28:30.951Z,14.60
2017-08-05T06:30:59.323Z,14.70
2017-08-05T06:33:27.792Z,14.60
2017-08-05T06:35:56.133Z,14.70
2017-08-05T06:38:24.480Z,14.80
2017-08-05T06:40:52.821Z,14.80
2017-08-05T06:43:21.167Z,14.80
2017-08-05T06:45:49.457Z,14.80
2017-08-05T06:48:17.813Z,14.90
2017-08-05T06:50:46.168Z,15.20
2017-08-05T06:53:14.528Z,15.40
2017-08-05T06:55:42.826Z,15.50
2017-08-05T06:58:11.120Z,15.50
2017-08-05T07:00:39.455Z,15.40
2017-08-05T07:03:07.752Z,15.50
2017-08-05T07:05:36.098Z,15.50
2017-08-05T07:08:04.442Z,15.50
2017-08-05T07:10:32.769Z,15.40
2017-08-05T07:13:01.179Z,15.40
2017-08-05T07:15:29.499Z,15.40
2017-08-05T07:17:57.896Z,15.50
2017-08-05T07:20:27.173Z,15.50
2017-08-05T07:22:55.480Z,15.60
2017-08-05T07:25:23.823Z,15.60
2017-08-05T07:27:53.064Z,15.70
2017-08-05T07:30:22.234Z,15.80
2017-08-05T07:32:50.543Z,16.10
2017-08-05T07:35:18.868Z,16.40
2017-08-05T07:37:47.232Z,16.60
2017-08-05T07:40:15.529Z,16.80
2017-08-05T07:42:43.868Z,16.70
2017-08-05T07:45:12.203Z,16.80
2017-08-05T07:47:40.501Z,16.60
2017-08-05T07:50:08.860Z,16.60
2017-08-05T07:52:37.149Z,16.50
2017-08-05T07:55:05.503Z,16.50
2017-08-05T07:57:33.808Z,16.30
2017-08-05T08:00:03.097Z,15.80
2017-08-05T08:02:31.528Z,15.60
2017-08-05T08:04:59.922Z,15.40
2017-08-05T08:07:31.468Z,15.20
2017-08-05T08:09:59.841Z,15.10
2017-08-05T08:12:28.226Z,15.10
2017-08-05T08:14:57.603Z,15.10
2017-08-05T08:17:25.945Z,15.20
2017-08-05T08:19:54.465Z,15.20
2017-08-05T08:22:22.823Z,15.30
2017-08-05T08:24:51.152Z,15.30
2017-08-05T08:27:19.497Z,15.30
2017-08-05T08:29:47.803Z,15.30
2017-08-05T08:32:16.293Z,15.60
2017-08-05T08:34:44.893Z,15.80
2017-08-05T08:37:13.181Z,15.80
2017-08-05T08:39:41.528Z,15.70
2017-08-05T08:42:09.873Z,15.70
2017-08-05T08:44:38.163Z,15.90
2017-08-05T08:47:06.456Z,16.00
2017-08-05T08:49:34.904Z,16.10
2017-08-05T08:52:03.192Z,16.20
2017-08-05T08:54:31.545Z,16.20
2017-08-05T08:56:59.954Z,16.50
2017-08-05T08:59:28.280Z,16.60
2017-08-05T09:01:56.637Z,16.50
2017-08-05T09:04:24.988Z,16.40
2017-08-05T09:06:53.355Z,16.30
2017-08-05T09:09:21.651Z,16.30
2017-08-05T09:11:49.943Z,16.30
2017-08-05T09:14:18.291Z,16.30
2017-08-05T09:16:46.616Z,16.40
2017-08-05T09:19:14.989Z,16.20
2017-08-05T09:21:43.311Z,16.10
2017-08-05T09:24:11.665Z,15.90
2017-08-05T09:26:40.012Z,15.80
2017-08-05T09:29:08.364Z,15.70
2017-08-05T09:31:36.709Z,15.70
2017-08-05T09:34:05.048Z,15.70
2017-08-05T09:36:33.392Z,15.60
2017-08-05T09:39:01.771Z,15.60
2017-08-05T09:41:30.690Z,15.70
2017-08-05T09:43:59.100Z,15.80
2017-08-05T09:46:27.409Z,16.10
2017-08-05T09:48:55.781Z,16.20
2017-08-05T09:51:25.470Z,16.20
2017-08-05T09:53:53.783Z,16.10
2017-08-05T09:56:22.076Z,16.10
2017-08-05T09:58:50.520Z,16.10
2017-08-05T10:01:18.820Z,16.20
2017-08-05T10:03:47.140Z,16.10
2017-08-05T10:06:15.567Z,16.30
2017-08-05T10:08:43.875Z,16.20
2017-08-05T10:11:12.215Z,16.30
2017-08-05T10:13:40.517Z,16.30
2017-08-05T10:16:08.856Z,16.40
2017-08-05T10:18:37.191Z,16.30
2017-08-05T10:21:05.494Z,16.40
2017-08-05T10:23:33.783Z,16.50
2017-08-05T10:26:02.147Z,16.50
2017-08-05T10:28:30.477Z,16.50
2017-08-05T10:30:58.815Z,16.40
2017-08-05T10:33:27.349Z,16.40
2017-08-05T10:35:55.867Z,16.30
2017-08-05T10:38:24.281Z,16.30
2017-08-05T10:40:52.626Z,16.30
2017-08-05T10:43:20.916Z,16.30
2017-08-05T10:45:49.209Z,16.30
2017-08-05T10:48:17.833Z,16.30
2017-08-05T10:50:46.141Z,16.30
2017-08-05T10:53:14.453Z,16.30
2017-08-05T10:55:42.801Z,16.30
2017-08-05T10:58:17.153Z,16.20
2017-08-05T11:00:45.515Z,16.20
2017-08-05T11:03:13.811Z,16.20
2017-08-05T11:05:42.104Z,16.20
2017-08-05T11:08:10.445Z,16.30
2017-08-05T11:10:38.811Z,16.10
2017-08-05T11:13:07.100Z,16.00
2017-08-05T11:15:35.461Z,15.80
2017-08-05T11:18:03.807Z,15.90
2017-08-05T11:20:32.116Z,16.00
2017-08-05T11:23:00.526Z,15.70
2017-08-05T11:25:28.989Z,15.70
2017-08-05T11:27:57.491Z,15.60
2017-08-05T11:30:25.826Z,15.80
2017-08-05T11:35:50.876Z,16.00
2017-08-05T11:38:19.164Z,16.00
2017-08-05T11:40:47.516Z,16.00
2017-08-05T11:43:15.972Z,16.00
2017-08-05T11:45:45.256Z,15.90
2017-08-05T11:48:13.583Z,15.90
2017-08-05T11:50:43.308Z,15.90
2017-08-05T11:53:12.560Z,15.90
2017-08-05T11:55:40.899Z,15.70
2017-08-05T11:58:09.210Z,15.50
2017-08-05T12:00:37.890Z,15.50
2017-08-05T12:03:06.184Z,15.50
2017-08-05T12:05:34.507Z,15.50
2017-08-05T12:08:03.617Z,15.90
2017-08-05T12:10:32.681Z,16.20
2017-08-05T12:13:01.046Z,16.20
2017-08-05T12:15:29.721Z,16.40
2017-08-05T12:17:58.016Z,16.50
2017-08-05T12:20:26.358Z,15.80
2017-08-05T12:22:54.836Z,15.00
2017-08-05T12:25:23.126Z,14.90
2017-08-05T12:27:51.563Z,14.80
2017-08-05T12:30:19.993Z,14.70
2017-08-05T12:32:48.302Z,14.80
2017-08-05T12:35:16.611Z,14.70
2017-08-05T12:37:44.986Z,14.60
2017-08-05T12:40:14.200Z,14.50
2017-08-05T12:42:42.530Z,14.60
2017-08-05T12:45:11.025Z,14.60
2017-08-05T12:47:40.229Z,14.60
2017-08-05T12:50:12.533Z,14.70
2017-08-05T12:52:40.861Z,14.60
2017-08-05T12:55:09.169Z,14.80
2017-08-05T12:57:37.513Z,15.00
2017-08-05T13:00:05.805Z,15.00
2017-08-05T13:02:34.112Z,14.80
2017-08-05T13:05:02.482Z,14.60
2017-08-05T13:07:30.784Z,14.50
2017-08-05T13:09:59.093Z,14.30
2017-08-05T13:12:27.532Z,14.20
2017-08-05T13:14:55.828Z,14.40
2017-08-05T13:17:24.129Z,14.40
2017-08-05T13:19:53.144Z,14.40
2017-08-05T13:22:21.578Z,14.30
2017-08-05T13:24:49.876Z,14.20
2017-08-05T13:27:18.202Z,14.20
2017-08-05T13:29:46.522Z,14.40
2017-08-05T13:32:14.886Z,14.30
2017-08-05T13:34:43.324Z,14.20
2017-08-05T13:37:11.615Z,14.20
2017-08-05T13:39:39.948Z,14.20
2017-08-05T13:42:08.255Z,14.30
2017-08-05T13:44:40.939Z,14.30
2017-08-05T13:47:09.410Z,14.30
2017-08-05T13:49:37.713Z,14.30
2017-08-05T13:52:06.058Z,14.40
2017-08-05T13:54:36.016Z,14.40
2017-08-05T13:57:05.080Z,14.80
2017-08-05T13:59:33.436Z,14.80
2017-08-05T14:02:01.730Z,15.10
2017-08-05T14:04:30.090Z,15.00
2017-08-05T14:06:58.430Z,14.90
2017-08-05T14:09:28.098Z,14.90
2017-08-05T14:11:56.439Z,14.80
2017-08-05T14:14:24.774Z,14.60
2017-08-05T14:16:53.088Z,14.80
2017-08-05T14:19:22.327Z,14.70
2017-08-05T14:21:50.666Z,14.70
2017-08-05T14:24:18.956Z,14.90
2017-08-05T14:26:48.170Z,15.80
2017-08-05T14:29:16.465Z,15.80
2017-08-05T14:31:44.767Z,16.40
2017-08-05T14:34:13.210Z,16.50
2017-08-05T14:36:41.504Z,16.50
2017-08-05T14:39:09.873Z,17.00
2017-08-05T14:41:38.214Z,17.60
2017-08-05T14:44:06.548Z,17.20
2017-08-05T14:46:34.844Z,17.30
2017-08-05T14:49:03.181Z,17.10
2017-08-05T14:51:32.290Z,16.70
2017-08-05T14:54:00.577Z,16.70
2017-08-05T14:56:28.916Z,16.10
2017-08-05T14:58:57.869Z,15.70
2017-08-05T15:01:26.970Z,15.80
2017-08-05T15:03:55.322Z,15.80
2017-08-05T15:06:23.668Z,15.50
2017-08-05T15:08:52.043Z,15.40
2017-08-05T15:11:20.356Z,15.20
2017-08-05T15:13:49.389Z,15.10
2017-08-05T15:16:17.730Z,15.00
2017-08-05T15:18:46.027Z,14.90
2017-08-05T15:21:15.093Z,14.80
2017-08-05T15:23:43.427Z,14.80
2017-08-05T15:26:11.760Z,14.60
2017-08-05T15:28:40.096Z,14.70
2017-08-05T15:31:09.216Z,14.80
2017-08-05T15:33:37.563Z,14.80
2017-08-05T15:36:05.902Z,14.80
2017-08-05T15:38:34.220Z,15.00
2017-08-05T15:41:03.616Z,15.00
2017-08-05T15:43:31.921Z,15.10
2017-08-05T15:46:00.328Z,15.40
2017-08-05T15:48:29.244Z,15.60
2017-08-05T15:50:57.572Z,15.60
2017-08-05T15:53:25.866Z,15.50
2017-08-05T15:55:54.195Z,15.30
2017-08-05T15:58:22.543Z,15.20
2017-08-05T16:00:51.612Z,14.90
2017-08-05T16:03:19.971Z,14.80
2017-08-05T16:05:48.263Z,14.80
2017-08-05T16:08:16.571Z,14.80
2017-08-05T16:10:44.928Z,14.80
2017-08-05T16:13:13.228Z,14.90
2017-08-05T16:15:41.525Z,15.00
2017-08-05T16:18:09.875Z,15.10
2017-08-05T16:20:38.947Z,15.50
2017-08-05T16:23:07.287Z,15.50
2017-08-05T16:25:35.586Z,15.40
2017-08-05T16:28:03.879Z,15.20
2017-08-05T16:30:32.227Z,15.10
2017-08-05T16:33:00.536Z,15.00
2017-08-05T16:35:29.602Z,15.10
2017-08-05T16:37:57.939Z,15.10
2017-08-05T16:40:26.282Z,15.00
2017-08-05T16:42:54.732Z,15.10
2017-08-05T16:45:23.040Z,15.20
2017-08-05T16:47:51.336Z,15.20
2017-08-05T16:50:19.876Z,15.00
2017-08-05T16:52:48.944Z,15.00
2017-08-05T16:55:17.245Z,15.00
2017-08-05T16:57:45.679Z,14.90
2017-08-05T17:00:14.746Z,14.90
2017-08-05T17:02:43.041Z,14.90
2017-08-05T17:05:11.392Z,14.90
2017-08-05T17:07:39.691Z,14.80
2017-08-05T17:10:08.059Z,14.70
2017-08-05T17:12:36.363Z,14.70
2017-08-05T17:15:04.665Z,14.60
2017-08-05T17:17:33.004Z,14.60
2017-08-05T17:20:01.355Z,14.60
2017-08-05T17:22:29.663Z,14.60
2017-08-05T17:24:58.003Z,14.50
2017-08-05T17:27:26.306Z,14.60
2017-08-05T17:29:54.702Z,14.50
2017-08-05T17:32:23.063Z,14.50
2017-08-05T17:34:51.407Z,14.50
2017-08-05T17:37:19.715Z,14.60
2017-08-05T17:39:48.073Z,14.40
2017-08-05T17:42:16.367Z,14.50
2017-08-05T17:44:44.663Z,14.40
2017-08-05T17:47:13.004Z,14.50
2017-08-05T17:49:41.304Z,14.40
2017-08-05T17:52:09.644Z,14.30
2017-08-05T17:54:37.988Z,14.20
2017-08-05T17:57:06.319Z,14.10
2017-08-05T17:59:36.748Z,14.00
2017-08-05T18:02:05.049Z,14.00
2017-08-05T18:04:33.391Z,14.00
2017-08-05T18:07:03.534Z,14.00
2017-08-05T18:09:31.884Z,14.00
2017-08-05T18:12:00.271Z,13.90
2017-08-05T18:14:28.585Z,13.80
2017-08-05T18:16:57.895Z,13.90
2017-08-05T18:19:26.278Z,13.80
2017-08-05T18:21:54.590Z,13.90
2017-08-05T18:24:22.904Z,13.80
2017-08-05T18:26:51.248Z,13.70
2017-08-05T18:29:20.390Z,13.60
2017-08-05T18:31:48.735Z,13.50
2017-08-05T18:34:17.093Z,13.60
2017-08-05T18:36:45.431Z,13.40
2017-08-05T18:39:13.732Z,13.40
2017-08-05T18:41:42.097Z,13.40
2017-08-05T18:44:11.426Z,13.40
2017-08-05T18:46:40.500Z,13.40
2017-08-05T18:49:09.477Z,13.40
2017-08-05T18:51:37.891Z,13.30
2017-08-05T18:54:06.353Z,13.30
2017-08-05T18:56:34.943Z,13.20
2017-08-05T18:59:03.331Z,13.20
2017-08-05T19:01:31.732Z,13.20
2017-08-05T19:04:00.130Z,13.10
2017-08-05T19:06:28.560Z,13.10
2017-08-05T19:08:56.950Z,13.00
2017-08-05T19:11:25.329Z,13.00
2017-08-05T19:13:53.919Z,13.00
2017-08-05T19:16:23.038Z,12.90
2017-08-05T19:18:51.480Z,12.90
2017-08-05T19:21:19.938Z,12.80
2017-08-05T19:23:48.318Z,12.80
2017-08-05T19:26:16.698Z,12.80
2017-08-05T19:28:45.229Z,12.70
2017-08-05T19:31:14.609Z,12.70
2017-08-05T19:33:43.007Z,12.70
2017-08-05T19:36:11.429Z,12.60
2017-08-05T19:38:39.868Z,12.60
2017-08-05T19:41:08.263Z,12.60
2017-08-05T19:43:36.638Z,12.40
2017-08-05T19:46:05.198Z,12.30
2017-08-05T19:48:34.345Z,12.10
2017-08-05T19:51:03.864Z,12.10
2017-08-05T19:53:32.367Z,12.00
2017-08-05T19:56:00.740Z,11.80
2017-08-05T19:58:29.222Z,11.70
2017-08-05T20:00:57.518Z,11.70
2017-08-05T20:03:25.833Z,11.60
2017-08-05T20:05:54.174Z,11.50
2017-08-05T20:08:22.507Z,11.50
2017-08-05T20:10:50.848Z,11.40
2017-08-05T20:13:19.909Z,11.30
2017-08-05T20:15:48.236Z,11.20
2017-08-05T20:18:16.581Z,11.30
2017-08-05T20:20:44.917Z,11.10
2017-08-05T20:23:13.239Z,11.10
2017-08-05T20:25:41.633Z,11.00
2017-08-05T20:28:10.072Z,10.90
2017-08-05T20:30:38.377Z,10.80
2017-08-05T20:33:06.684Z,10.70
2017-08-05T20:35:35.798Z,10.70
2017-08-05T20:38:04.102Z,10.70
2017-08-05T20:40:32.729Z,10.60
2017-08-05T20:43:01.029Z,10.60
2017-08-05T20:45:29.331Z,10.60
2017-08-05T20:47:58.787Z,10.60
2017-08-05T20:50:27.088Z,10.60
2017-08-05T20:52:55.381Z,10.40
2017-08-05T20:55:23.718Z,10.30
2017-08-05T20:57:52.853Z,10.30
2017-08-05T21:00:21.140Z,10.20
2017-08-05T21:02:50.694Z,10.20
2017-08-05T21:05:18.999Z,10.20
2017-08-05T21:07:47.340Z,10.10
2017-08-05T21:10:16.409Z,9.90
2017-08-05T21:12:44.736Z,9.90
2017-08-05T21:15:13.819Z,9.90
2017-08-05T21:17:42.165Z,9.80
2017-08-05T21:20:10.487Z,9.80
2017-08-05T21:22:38.776Z,9.70
2017-08-05T21:25:07.143Z,9.70
2017-08-05T21:27:35.494Z,9.60
2017-08-05T21:30:03.890Z,9.60
2017-08-05T21:32:32.961Z,9.50
2017-08-05T21:35:02.091Z,9.50
2017-08-05T21:37:30.378Z,9.40
2017-08-05T21:39:58.710Z,9.50
2017-08-05T21:42:27.008Z,9.40
2017-08-05T21:44:55.297Z,9.40
2017-08-05T21:47:23.637Z,9.50
2017-08-05T21:49:51.929Z,9.50
2017-08-05T21:52:21.039Z,9.90
2017-08-05T21:54:50.147Z,9.90
2017-08-05T21:57:19.481Z,9.90
2017-08-05T21:59:47.811Z,10.20
2017-08-05T22:02:16.148Z,10.40
2017-08-05T22:04:45.260Z,10.40
2017-08-05T22:07:14.332Z,10.50
2017-08-05T22:09:42.686Z,10.50
2017-08-05T22:12:10.983Z,10.50
2017-08-05T22:14:39.295Z,10.50
2017-08-05T22:17:07.646Z,10.60
2017-08-05T22:19:37.419Z,10.70
2017-08-05T22:22:05.762Z,10.70
2017-08-05T22:24:34.073Z,10.90
2017-08-05T22:27:02.520Z,10.90
2017-08-05T22:29:30.820Z,10.90
2017-08-05T22:31:59.139Z,11.00
2017-08-05T22:34:27.689Z,11.10
2017-08-05T22:36:55.992Z,11.20
2017-08-05T22:39:24.299Z,11.10
2017-08-05T22:41:52.658Z,11.10
2017-08-05T22:44:20.965Z,11.10
2017-08-05T22:46:49.262Z,11.20
2017-08-05T22:49:17.616Z,11.40
2017-08-05T22:51:45.959Z,11.40
2017-08-05T22:54:14.299Z,11.40
2017-08-05T22:56:42.680Z,11.50
2017-08-05T22:59:10.976Z,11.60
2017-08-05T23:01:39.934Z,11.70
2017-08-05T23:04:08.258Z,11.70
2017-08-05T23:06:36.565Z,11.70
2017-08-05T23:09:04.930Z,11.80
2017-08-05T23:11:33.232Z,11.80
2017-08-05T23:14:01.533Z,11.80
2017-08-05T23:16:30.636Z,11.90
2017-08-05T23:18:58.953Z,11.90
2017-08-05T23:21:27.297Z,12.00
2017-08-05T23:23:55.609Z,12.00
2017-08-05T23:26:23.973Z,12.00
2017-08-05T23:28:52.284Z,12.00
2017-08-05T23:31:22.617Z,12.00
2017-08-05T23:33:50.937Z,12.00
2017-08-05T23:36:20.061Z,12.10
2017-08-05T23:38:52.259Z,12.10
2017-08-05T23:41:20.569Z,12.20
2017-08-05T23:43:48.893Z,12.10
2017-08-05T23:46:17.288Z,12.10
2017-08-05T23:48:46.409Z,12.10
2017-08-05T23:51:15.127Z,12.10
2017-08-05T23:53:43.431Z,12.10
2017-08-05T23:56:11.790Z,12.10
2017-08-05T23:58:40.132Z,12.10
